Time;durP1;ratioP1;P1;durP2;ratioP2;P2;SDS_P1;SDS_P2;PMS_P1;PMS_P2;Temp;Humidity;BMP_temperature;BMP_pressure;BME280_temperature;BME280_humidity;BME280_pressure;Samples;Min_cycle;Max_cycle;Signal;HPM_P1;HPM_P2
2021/03/29 00:02:07;;;;;;;10.48;4.90;;;13.10;99.90;;;;;;5050369;28;20483;-74
2021/03/29 00:04:33;;;;;;;6.95;4.57;;;13.10;99.90;;;;;;5046797;28;20079;-76
2021/03/29 00:07:01;;;;;;;6.68;4.57;;;13.10;99.90;;;;;;5033297;28;20033;-73
2021/03/29 00:09:30;;;;;;;9.32;6.05;;;13.00;99.90;;;;;;5049168;28;20078;-74
2021/03/29 00:12:00;;;;;;;8.95;5.18;;;12.90;99.90;;;;;;5048350;28;20028;-72
2021/03/29 00:14:28;;;;;;;7.82;5.20;;;12.80;99.90;;;;;;5046309;28;20563;-72
2021/03/29 00:16:54;;;;;;;9.10;5.38;;;12.80;99.90;;;;;;5050082;28;20104;-72
2021/03/29 00:19:20;;;;;;;6.20;4.20;;;12.70;99.90;;;;;;5042361;28;20041;-76
2021/03/29 00:21:46;;;;;;;10.38;6.30;;;12.70;99.90;;;;;;5043678;28;20037;-74
2021/03/29 00:24:13;;;;;;;12.88;8.05;;;12.60;99.90;;;;;;5051995;28;20086;-74
2021/03/29 00:26:39;;;;;;;19.08;9.38;;;12.50;99.90;;;;;;5048366;28;20483;-76
2021/03/29 00:29:06;;;;;;;16.92;8.57;;;12.50;99.90;;;;;;5034675;28;20033;-75
2021/03/29 00:31:33;;;;;;;13.98;8.43;;;12.50;99.90;;;;;;5034397;28;20030;-73
2021/03/29 00:34:00;;;;;;;16.10;10.07;;;12.60;99.90;;;;;;5035635;28;20037;-75
2021/03/29 00:36:28;;;;;;;18.40;10.80;;;12.70;99.90;;;;;;5052701;28;20021;-75
2021/03/29 00:38:55;;;;;;;15.10;9.77;;;12.70;99.90;;;;;;5054385;28;20029;-76
2021/03/29 00:41:23;;;;;;;15.70;9.80;;;12.80;99.90;;;;;;5049477;28;20037;-72
2021/03/29 00:43:50;;;;;;;14.85;9.50;;;12.80;99.90;;;;;;5052618;28;20039;-73
2021/03/29 00:46:18;;;;;;;18.60;8.75;;;12.90;99.90;;;;;;5022972;28;20059;-75
2021/03/29 00:48:46;;;;;;;15.90;7.90;;;12.90;99.90;;;;;;5035650;28;20032;-73
2021/03/29 00:51:17;;;;;;;16.77;8.90;;;12.80;99.90;;;;;;5039099;28;20021;-74
2021/03/29 00:53:49;;;;;;;18.30;10.55;;;12.80;99.90;;;;;;5052629;28;20029;-76
2021/03/29 00:56:16;;;;;;;18.17;11.60;;;12.70;99.90;;;;;;5040633;28;20052;-75
2021/03/29 00:58:47;;;;;;;22.35;13.82;;;12.70;99.90;;;;;;5037476;28;20063;-74
2021/03/29 01:01:19;;;;;;;32.42;15.95;;;12.70;99.90;;;;;;5033968;28;20297;-75
2021/03/29 01:03:49;;;;;;;28.90;17.30;;;12.60;99.90;;;;;;5034045;28;20038;-75
2021/03/29 01:06:17;;;;;;;28.38;16.92;;;12.60;99.90;;;;;;5028187;28;20120;-73
2021/03/29 01:08:50;;;;;;;28.15;16.75;;;12.60;99.90;;;;;;5049768;28;20028;-75
2021/03/29 01:11:21;;;;;;;26.70;15.38;;;12.50;99.90;;;;;;5033299;28;20029;-75
2021/03/29 01:14:00;;;;;;;29.83;15.23;;;12.50;99.90;;;;;;5033605;28;20049;-76
2021/03/29 01:16:30;;;;;;;21.05;13.30;;;12.40;99.90;;;;;;5035971;28;20503;-75
2021/03/29 01:18:58;;;;;;;25.58;15.70;;;12.30;99.90;;;;;;5043605;28;20034;-73
2021/03/29 01:22:05;;;;;;;22.33;14.23;;;12.30;99.90;;;;;;5047054;28;20094;-73
2021/03/29 01:25:03;;;;;;;22.95;13.50;;;12.10;99.90;;;;;;5053300;28;20065;-73
2021/03/29 01:28:03;;;;;;;19.92;13.15;;;12.10;99.90;;;;;;5034048;28;20030;-73
2021/03/29 01:30:33;;;;;;;24.38;12.85;;;12.00;99.90;;;;;;5041618;28;20041;-74
2021/03/29 01:33:00;;;;;;;23.67;13.38;;;11.90;99.90;;;;;;5037682;28;20047;-72
2021/03/29 01:35:38;;;;;;;21.40;13.63;;;12.00;99.90;;;;;;5048184;28;20040;-72
2021/03/29 01:38:05;;;;;;;19.95;12.30;;;12.00;99.90;;;;;;5053456;28;20028;-76
2021/03/29 01:40:35;;;;;;;24.65;12.93;;;11.90;99.90;;;;;;5038117;28;20119;-75
2021/03/29 01:43:01;;;;;;;20.10;13.55;;;11.90;99.90;;;;;;5010953;28;20384;-75
2021/03/29 01:45:27;;;;;;;24.48;12.48;;;11.90;99.90;;;;;;5050480;28;20474;-76
2021/03/29 01:47:54;;;;;;;22.33;12.95;;;11.90;99.90;;;;;;5052540;28;20029;-76
2021/03/29 01:50:27;;;;;;;25.00;11.70;;;11.80;99.90;;;;;;5049359;28;20044;-77
2021/03/29 01:52:55;;;;;;;20.60;11.77;;;11.90;99.90;;;;;;5032911;28;20033;-76
2021/03/29 01:55:22;;;;;;;21.50;12.30;;;11.80;99.90;;;;;;5032661;28;20036;-76
2021/03/29 01:57:47;;;;;;;28.67;13.45;;;11.70;99.90;;;;;;5032963;28;20147;-76
2021/03/29 02:00:18;;;;;;;25.10;12.43;;;11.80;99.90;;;;;;5046294;28;20511;-75
2021/03/29 02:02:45;;;;;;;22.08;12.48;;;11.80;99.90;;;;;;5036759;28;20048;-76
2021/03/29 02:05:15;;;;;;;24.45;13.30;;;11.80;99.90;;;;;;5035972;28;20509;-76
2021/03/29 02:07:42;;;;;;;22.90;13.40;;;11.70;99.90;;;;;;5052643;28;20025;-76
2021/03/29 02:10:20;;;;;;;22.33;12.90;;;11.60;99.90;;;;;;5051899;28;20035;-75
2021/03/29 02:12:47;;;;;;;19.98;13.15;;;11.60;99.90;;;;;;5042753;28;20045;-76
2021/03/29 02:15:17;;;;;;;22.52;13.50;;;11.70;99.90;;;;;;5051396;28;20534;-76
2021/03/29 02:17:44;;;;;;;22.00;12.10;;;11.90;99.90;;;;;;5052621;28;20108;-77
2021/03/29 02:20:18;;;;;;;20.67;11.75;;;12.00;99.90;;;;;;5047779;28;20033;-76
2021/03/29 02:22:49;;;;;;;22.20;12.60;;;12.10;99.90;;;;;;5034472;28;20025;-76
2021/03/29 02:25:16;;;;;;;27.95;12.82;;;12.20;99.90;;;;;;5034051;28;20028;-77
2021/03/29 02:27:42;;;;;;;19.70;12.30;;;12.30;99.90;;;;;;5032356;28;20029;-76
2021/03/29 02:30:15;;;;;;;21.45;12.70;;;12.40;99.90;;;;;;5032632;28;20026;-77
2021/03/29 02:32:45;;;;;;;19.55;11.57;;;12.40;99.90;;;;;;5055183;28;20036;-72
2021/03/29 02:35:13;;;;;;;22.00;12.60;;;12.40;99.90;;;;;;5053047;28;20028;-74
2021/03/29 02:37:49;;;;;;;19.13;11.75;;;12.30;99.90;;;;;;5052219;28;20036;-75
2021/03/29 02:40:19;;;;;;;20.83;10.18;;;12.30;99.90;;;;;;5033179;28;20043;-75
2021/03/29 02:42:47;;;;;;;18.08;11.32;;;12.40;99.90;;;;;;5051665;28;20044;-73
2021/03/29 02:45:16;;;;;;;17.75;10.90;;;12.40;99.90;;;;;;5037363;28;20079;-74
2021/03/29 02:47:43;;;;;;;16.42;11.18;;;12.40;99.90;;;;;;5032274;28;20033;-75
2021/03/29 02:50:12;;;;;;;21.08;11.75;;;12.40;99.90;;;;;;5034892;28;20025;-75
2021/03/29 02:52:41;;;;;;;19.08;10.82;;;12.30;99.90;;;;;;5050820;28;20033;-73
2021/03/29 02:55:09;;;;;;;18.80;10.43;;;12.30;99.90;;;;;;5048595;28;20502;-75
2021/03/29 02:57:42;;;;;;;17.63;9.80;;;12.30;99.90;;;;;;5032357;28;20029;-75
2021/03/29 03:00:17;;;;;;;17.83;10.70;;;12.40;99.90;;;;;;5045058;28;20033;-76
2021/03/29 03:02:44;;;;;;;16.45;9.90;;;12.50;99.90;;;;;;5033330;28;20025;-74
2021/03/29 03:05:11;;;;;;;15.18;9.65;;;12.50;99.90;;;;;;5034815;28;20025;-76
2021/03/29 03:07:38;;;;;;;20.40;10.85;;;12.50;99.90;;;;;;5051917;28;20020;-76
2021/03/29 03:10:08;;;;;;;15.10;9.93;;;12.60;99.90;;;;;;5049568;28;20104;-76
2021/03/29 03:12:35;;;;;;;16.63;9.85;;;12.60;99.90;;;;;;5046214;28;20108;-76
2021/03/29 03:15:03;;;;;;;18.85;11.82;;;12.60;99.90;;;;;;5026682;28;20396;-76
2021/03/29 03:17:29;;;;;;;18.58;10.10;;;12.50;99.90;;;;;;5037215;28;20037;-77
2021/03/29 03:19:55;;;;;;;16.02;10.07;;;12.50;99.90;;;;;;5040171;28;20078;-76
2021/03/29 03:22:21;;;;;;;17.98;10.25;;;12.50;99.90;;;;;;5045291;28;20060;-74
2021/03/29 03:24:47;;;;;;;17.20;9.30;;;12.50;99.90;;;;;;5037429;28;20036;-76
2021/03/29 03:27:12;;;;;;;16.83;10.10;;;12.50;99.90;;;;;;5037713;28;20029;-75
2021/03/29 03:29:40;;;;;;;16.83;9.07;;;12.40;99.90;;;;;;5035779;28;20029;-76
2021/03/29 03:32:11;;;;;;;15.45;9.70;;;12.50;99.90;;;;;;5023224;28;20035;-76
2021/03/29 03:34:37;;;;;;;17.35;9.40;;;12.40;99.90;;;;;;5042110;28;20492;-76
2021/03/29 03:37:05;;;;;;;14.85;9.23;;;12.40;99.90;;;;;;5035591;28;20071;-76
2021/03/29 03:39:31;;;;;;;16.75;10.55;;;12.30;99.90;;;;;;5042630;28;20025;-76
2021/03/29 03:41:57;;;;;;;18.80;10.63;;;12.30;99.90;;;;;;5037215;28;20124;-76
2021/03/29 03:44:23;;;;;;;18.27;10.32;;;12.30;99.90;;;;;;5047466;28;20379;-76
2021/03/29 03:46:51;;;;;;;16.52;10.18;;;12.30;99.90;;;;;;5041643;28;20045;-75
2021/03/29 03:49:21;;;;;;;12.77;8.93;;;12.30;99.90;;;;;;5035352;28;20013;-75
2021/03/29 03:51:48;;;;;;;13.95;8.75;;;12.30;99.90;;;;;;5032767;28;20087;-75
2021/03/29 03:54:16;;;;;;;12.48;8.60;;;12.30;99.90;;;;;;5052760;28;20029;-76
2021/03/29 03:56:43;;;;;;;12.85;7.78;;;12.30;99.90;;;;;;5035119;28;20084;-75
2021/03/29 03:59:11;;;;;;;13.45;9.25;;;12.30;99.90;;;;;;5034723;28;20376;-73
2021/03/29 04:02:04;;;;;;;16.33;9.55;;;12.30;99.90;;;;;;5045875;28;20037;-72
2021/03/29 04:04:30;;;;;;;14.90;9.07;;;12.20;99.90;;;;;;5054098;28;20039;-74
2021/03/29 04:07:00;;;;;;;16.02;8.25;;;12.20;99.90;;;;;;5054310;28;20029;-74
2021/03/29 04:11:59;;;;;;;18.00;8.38;;;12.10;99.90;;;;;;5039783;28;20021;-75
2021/03/29 04:14:25;;;;;;;14.57;7.65;;;12.10;99.90;;;;;;5041238;28;20415;-76
2021/03/29 04:16:51;;;;;;;13.57;7.68;;;12.10;99.90;;;;;;5053851;28;20029;-75
2021/03/29 04:19:17;;;;;;;12.50;7.88;;;12.10;99.90;;;;;;5036852;28;20100;-74
2021/03/29 04:21:43;;;;;;;17.10;8.25;;;12.10;99.90;;;;;;5048055;28;20033;-75
2021/03/29 04:24:09;;;;;;;14.85;7.80;;;12.10;99.90;;;;;;5039009;28;20029;-75
2021/03/29 04:26:35;;;;;;;21.80;8.70;;;12.10;99.90;;;;;;5046672;28;20040;-76
2021/03/29 04:29:01;;;;;;;16.92;8.50;;;12.00;99.90;;;;;;5044666;28;20017;-75
2021/03/29 04:31:27;;;;;;;17.67;8.23;;;11.90;99.90;;;;;;5040429;28;20387;-75
2021/03/29 04:33:53;;;;;;;13.65;7.95;;;11.80;99.90;;;;;;5053052;28;20201;-74
2021/03/29 04:36:19;;;;;;;19.58;8.05;;;11.80;99.90;;;;;;5035678;28;20490;-73
2021/03/29 04:38:44;;;;;;;14.57;9.68;;;11.70;99.90;;;;;;5053023;28;20025;-75
2021/03/29 04:41:10;;;;;;;15.82;9.88;;;11.80;99.90;;;;;;5054156;28;20045;-73
2021/03/29 04:43:36;;;;;;;17.90;10.25;;;11.80;99.90;;;;;;5036721;28;20025;-76
2021/03/29 04:46:02;;;;;;;21.02;11.60;;;11.80;99.90;;;;;;5049708;28;20033;-75
2021/03/29 04:48:28;;;;;;;19.25;12.73;;;11.90;99.90;;;;;;5052774;28;20024;-75
2021/03/29 04:50:54;;;;;;;21.83;12.32;;;12.00;99.90;;;;;;5050537;28;20392;-76
2021/03/29 04:53:20;;;;;;;21.17;13.00;;;12.00;99.90;;;;;;5034163;28;20033;-75
2021/03/29 04:55:46;;;;;;;28.08;14.35;;;12.10;99.90;;;;;;5042524;28;20551;-72
2021/03/29 04:58:12;;;;;;;25.38;14.13;;;12.10;99.90;;;;;;5050261;28;20017;-72
2021/03/29 05:00:38;;;;;;;26.67;14.60;;;12.20;99.90;;;;;;5049675;28;20044;-76
2021/03/29 05:03:04;;;;;;;22.92;14.00;;;12.10;99.90;;;;;;5053243;28;20028;-74
2021/03/29 05:05:30;;;;;;;30.33;15.15;;;12.10;99.90;;;;;;5049018;28;20084;-76
2021/03/29 05:07:55;;;;;;;25.42;14.07;;;12.10;99.90;;;;;;5047997;28;20029;-77
2021/03/29 05:10:22;;;;;;;25.17;14.40;;;12.20;99.90;;;;;;5053308;28;20377;-76
2021/03/29 05:12:48;;;;;;;23.75;13.80;;;12.20;99.90;;;;;;5045818;28;20108;-77
2021/03/29 05:15:14;;;;;;;26.38;15.07;;;12.20;99.90;;;;;;5045284;28;20060;-77
2021/03/29 05:17:40;;;;;;;24.58;13.95;;;12.20;99.90;;;;;;5037809;28;20037;-74
2021/03/29 05:20:09;;;;;;;21.58;13.55;;;12.20;99.90;;;;;;5046366;28;20121;-76
2021/03/29 05:22:35;;;;;;;26.88;13.60;;;12.30;99.90;;;;;;5038493;28;20041;-77
2021/03/29 05:25:01;;;;;;;25.33;15.02;;;12.30;99.90;;;;;;5052498;28;20442;-75
2021/03/29 05:27:26;;;;;;;23.88;14.07;;;12.30;99.90;;;;;;5046350;28;20383;-77
2021/03/29 05:29:53;;;;;;;25.70;14.13;;;12.40;99.90;;;;;;5052783;28;20033;-77
2021/03/29 05:32:24;;;;;;;21.92;14.07;;;12.40;99.90;;;;;;5052958;28;20036;-77
2021/03/29 05:34:55;;;;;;;28.63;14.07;;;12.40;99.90;;;;;;5052871;28;20075;-77
2021/03/29 05:37:22;;;;;;;20.50;13.85;;;12.50;99.90;;;;;;5052862;28;20395;-76
2021/03/29 05:39:53;;;;;;;22.42;14.43;;;12.50;99.90;;;;;;5052175;28;20025;-76
2021/03/29 05:42:21;;;;;;;28.58;13.93;;;12.50;99.90;;;;;;5052749;28;20076;-77
2021/03/29 05:44:47;;;;;;;20.10;12.18;;;12.60;99.90;;;;;;5036202;28;20033;-76
2021/03/29 05:47:16;;;;;;;21.23;12.20;;;12.60;99.90;;;;;;5043646;28;20130;-76
2021/03/29 05:49:42;;;;;;;23.27;12.75;;;12.70;99.90;;;;;;5052446;28;20475;-76
2021/03/29 05:52:08;;;;;;;21.25;12.05;;;12.70;99.90;;;;;;5052607;28;20028;-76
2021/03/29 05:54:34;;;;;;;19.25;12.88;;;12.70;99.90;;;;;;5052796;28;20036;-73
2021/03/29 05:57:00;;;;;;;20.23;11.90;;;12.80;99.90;;;;;;5052805;28;20398;-76
2021/03/29 05:59:49;;;;;;;23.05;12.32;;;12.80;99.90;;;;;;5039229;28;20155;-76
2021/03/29 06:02:30;;;;;;;17.42;11.65;;;12.90;99.90;;;;;;5050122;28;20044;-77
2021/03/29 06:04:57;;;;;;;21.20;11.30;;;13.00;99.90;;;;;;5032423;28;20045;-77
2021/03/29 06:07:24;;;;;;;23.42;12.65;;;13.10;99.90;;;;;;5047743;28;20040;-76
2021/03/29 06:09:54;;;;;;;18.40;11.85;;;13.10;99.90;;;;;;5039528;28;20029;-76
2021/03/29 06:12:22;;;;;;;20.83;12.82;;;13.20;99.90;;;;;;5051973;28;20025;-76
2021/03/29 06:15:02;;;;;;;21.58;11.32;;;13.30;99.90;;;;;;5052224;28;20107;-74
2021/03/29 06:17:28;;;;;;;18.02;10.93;;;13.40;99.90;;;;;;5051195;28;20025;-74
2021/03/29 06:20:00;;;;;;;19.58;10.55;;;13.50;99.90;;;;;;5052039;28;20090;-75
2021/03/29 06:22:36;;;;;;;22.23;11.88;;;13.70;99.90;;;;;;5034278;28;20028;-74
2021/03/29 06:25:20;;;;;;;19.55;11.88;;;13.80;99.90;;;;;;5052053;28;20059;-71
2021/03/29 06:27:47;;;;;;;20.35;10.07;;;13.90;99.90;;;;;;5051943;28;20082;-75
2021/03/29 06:30:23;;;;;;;16.83;11.35;;;14.00;99.90;;;;;;5052031;28;20493;-72
2021/03/29 06:32:58;;;;;;;16.38;9.75;;;14.00;99.90;;;;;;5051891;28;20376;-72
2021/03/29 06:35:45;;;;;;;20.70;10.80;;;14.10;99.90;;;;;;5051047;28;20029;-72
2021/03/29 06:38:17;;;;;;;16.58;9.93;;;14.20;99.90;;;;;;5051855;28;20108;-73
2021/03/29 06:41:03;;;;;;;17.73;9.90;;;14.30;99.90;;;;;;5052020;28;20048;-74
2021/03/29 06:43:36;;;;;;;14.60;8.98;;;14.40;99.90;;;;;;5051750;28;20491;-72
2021/03/29 06:46:19;;;;;;;17.38;9.85;;;14.40;99.90;;;;;;5051842;28;20104;-75
2021/03/29 06:48:45;;;;;;;15.00;9.38;;;14.50;99.90;;;;;;5051861;28;20029;-74
2021/03/29 06:51:23;;;;;;;17.15;9.93;;;14.60;99.90;;;;;;5050897;28;20104;-74
2021/03/29 06:54:02;;;;;;;14.18;8.77;;;14.70;99.90;;;;;;5056028;28;20033;-73
2021/03/29 06:56:35;;;;;;;16.85;8.98;;;14.60;99.90;;;;;;5055770;28;20174;-75
2021/03/29 06:59:04;;;;;;;16.23;9.55;;;14.70;99.90;;;;;;5055126;28;20025;-76
2021/03/29 07:01:33;;;;;;;17.85;9.75;;;14.60;99.90;;;;;;5045293;28;20044;-75
2021/03/29 07:03:59;;;;;;;20.10;9.73;;;14.50;99.90;;;;;;5055230;28;20066;-75
2021/03/29 07:06:27;;;;;;;15.77;8.65;;;14.60;99.90;;;;;;5050430;28;20029;-74
2021/03/29 07:09:04;;;;;;;16.20;9.07;;;14.60;99.90;;;;;;5054069;28;20531;-75
2021/03/29 07:11:30;;;;;;;14.93;8.63;;;14.60;99.90;;;;;;5053150;28;20037;-72
2021/03/29 07:13:58;;;;;;;13.63;7.90;;;14.60;99.90;;;;;;5039735;28;20057;-75
2021/03/29 07:16:28;;;;;;;12.57;7.55;;;14.60;99.90;;;;;;5045340;28;20435;-75
2021/03/29 07:19:03;;;;;;;13.23;8.20;;;14.50;99.90;;;;;;5055378;28;20029;-75
2021/03/29 07:21:29;;;;;;;13.75;8.10;;;14.40;99.90;;;;;;5051733;28;20545;-75
2021/03/29 07:24:15;;;;;;;11.52;6.85;;;14.50;99.90;;;;;;5037881;28;20029;-72
2021/03/29 07:26:47;;;;;;;13.32;6.78;;;14.60;99.90;;;;;;5042867;28;20067;-73
2021/03/29 07:29:35;;;;;;;11.48;6.97;;;14.70;99.90;;;;;;5017680;28;20148;-73
2021/03/29 07:32:28;;;;;;;10.23;5.50;;;14.90;99.90;;;;;;5036576;28;20029;-73
2021/03/29 07:34:54;;;;;;;9.68;5.53;;;15.00;99.90;;;;;;5047633;28;20047;-73
2021/03/29 07:37:35;;;;;;;9.38;4.68;;;15.20;99.90;;;;;;5043881;28;20041;-73
2021/03/29 07:40:28;;;;;;;7.68;5.07;;;15.30;99.90;;;;;;5042252;28;20084;-73
2021/03/29 07:43:10;;;;;;;8.50;4.95;;;15.30;99.90;;;;;;5045987;28;20552;-73
2021/03/29 07:45:36;;;;;;;6.53;3.88;;;15.30;99.90;;;;;;5054895;28;20467;-73
2021/03/29 07:48:03;;;;;;;7.73;4.30;;;15.40;99.90;;;;;;5055082;28;20047;-74
2021/03/29 07:50:29;;;;;;;7.53;4.20;;;15.40;99.90;;;;;;5054724;28;20282;-74
2021/03/29 07:53:01;;;;;;;8.30;4.53;;;15.30;99.90;;;;;;5054736;28;20112;-74
2021/03/29 07:55:38;;;;;;;6.85;4.55;;;15.30;99.90;;;;;;5034867;28;20515;-73
2021/03/29 07:58:06;;;;;;;7.63;4.75;;;15.30;99.90;;;;;;5032286;28;20117;-74
2021/03/29 08:00:32;;;;;;;6.70;5.13;;;15.20;99.90;;;;;;5046852;28;20040;-74
2021/03/29 08:03:20;;;;;;;7.30;4.27;;;15.20;99.90;;;;;;5034508;28;20025;-73
2021/03/29 08:05:46;;;;;;;7.00;4.78;;;15.10;99.90;;;;;;5027238;28;20302;-73
2021/03/29 08:08:27;;;;;;;8.20;4.28;;;15.00;99.90;;;;;;5034700;28;20096;-73
2021/03/29 08:11:07;;;;;;;11.88;6.78;;;14.90;99.90;;;;;;5034651;28;20053;-73
2021/03/29 08:13:44;;;;;;;17.10;10.00;;;14.90;99.90;;;;;;5021063;28;20044;-73
2021/03/29 08:16:20;;;;;;;20.25;11.38;;;14.90;99.90;;;;;;5053994;28;20541;-73
2021/03/29 08:19:07;;;;;;;21.27;12.88;;;14.80;99.90;;;;;;5054498;28;20057;-75
2021/03/29 08:21:59;;;;;;;23.13;13.70;;;14.60;99.90;;;;;;5036418;28;20064;-80
2021/03/29 08:24:32;;;;;;;22.25;13.38;;;14.50;99.90;;;;;;5054347;28;20032;-79
2021/03/29 08:27:00;;;;;;;21.90;12.38;;;14.50;99.90;;;;;;5054353;28;20380;-80
2021/03/29 08:29:30;;;;;;;24.05;13.07;;;14.50;99.90;;;;;;5054187;28;20059;-81
2021/03/29 08:32:02;;;;;;;20.40;11.45;;;14.30;99.90;;;;;;5036302;28;20445;-79
2021/03/29 08:34:35;;;;;;;20.55;12.38;;;14.30;99.90;;;;;;5035447;28;20102;-79
2021/03/29 08:37:05;;;;;;;;;;;14.30;99.90;;;;;;5059144;28;20033;-73
2021/03/29 08:39:33;;;;;;;22.30;10.45;;;14.20;99.90;;;;;;5055406;28;19962;-76
2021/03/29 08:42:00;;;;;;;18.92;11.73;;;14.20;99.90;;;;;;5047150;28;20032;-78
2021/03/29 08:44:27;;;;;;;16.90;10.13;;;14.10;99.90;;;;;;5035944;28;20084;-73
2021/03/29 08:46:55;;;;;;;20.08;11.93;;;14.00;99.90;;;;;;5053969;28;20376;-72
2021/03/29 08:49:21;;;;;;;21.98;11.02;;;14.00;99.90;;;;;;5053784;28;20025;-72
2021/03/29 08:51:49;;;;;;;18.17;11.10;;;14.10;99.90;;;;;;5052650;28;20498;-72
2021/03/29 08:54:15;;;;;;;21.70;11.43;;;14.10;99.90;;;;;;5038279;28;20026;-72
2021/03/29 08:56:48;;;;;;;18.90;11.75;;;14.00;99.90;;;;;;5039016;28;20031;-79
2021/03/29 08:59:15;;;;;;;24.67;13.38;;;14.00;99.90;;;;;;5045824;28;20043;-81
2021/03/29 09:01:42;;;;;;;22.70;12.40;;;13.90;99.90;;;;;;5043308;28;20120;-79
2021/03/29 09:04:11;;;;;;;17.35;11.32;;;13.90;99.90;;;;;;5052377;28;20021;-74
2021/03/29 09:06:37;;;;;;;21.92;13.45;;;13.90;99.90;;;;;;5049375;28;20029;-72
2021/03/29 09:09:30;;;;;;;20.88;11.98;;;14.00;99.90;;;;;;5052389;28;20037;-73
2021/03/29 09:11:56;;;;;;;19.88;12.30;;;14.00;99.90;;;;;;5043638;28;20044;-72
2021/03/29 09:14:21;;;;;;;19.20;11.02;;;14.00;99.90;;;;;;5051780;28;20041;-71
2021/03/29 09:16:57;;;;;;;19.33;11.00;;;14.10;99.90;;;;;;5052689;28;20498;-71
2021/03/29 09:19:23;;;;;;;19.67;11.50;;;14.30;99.90;;;;;;5052868;28;20064;-72
2021/03/29 09:21:53;;;;;;;17.67;10.93;;;14.30;99.90;;;;;;5052807;28;20052;-72
2021/03/29 09:24:24;;;;;;;21.20;11.40;;;14.40;99.90;;;;;;5050242;28;20036;-72
2021/03/29 09:27:11;;;;;;;23.50;11.65;;;14.50;99.90;;;;;;5052714;28;20426;-72
2021/03/29 09:29:39;;;;;;;21.30;10.20;;;14.60;99.90;;;;;;5052537;28;20069;-72
2021/03/29 09:32:14;;;;;;;20.20;10.85;;;14.80;99.90;;;;;;5052809;28;20032;-72
2021/03/29 09:34:45;;;;;;;16.55;10.85;;;15.00;99.90;;;;;;5052392;28;20071;-72
2021/03/29 09:37:28;;;;;;;22.38;13.20;;;15.10;99.90;;;;;;5034641;28;20044;-72
2021/03/29 09:40:02;;;;;;;;;;;15.20;99.90;;;;;;5052781;28;20166;-72
2021/03/29 09:42:38;;;;;;;15.68;10.10;;;15.20;99.90;;;;;;5038014;28;19913;-72
2021/03/29 09:45:06;;;;;;;19.30;10.05;;;15.40;99.90;;;;;;5015379;28;20506;-72
2021/03/29 09:47:32;;;;;;;17.70;9.63;;;15.60;99.90;;;;;;5032522;28;20053;-75
2021/03/29 09:49:58;;;;;;;15.25;9.45;;;15.40;99.90;;;;;;5032737;28;20414;-72
2021/03/29 09:52:41;;;;;;;12.50;6.83;;;15.50;99.90;;;;;;5037768;28;20021;-72
2021/03/29 09:55:12;;;;;;;9.00;5.28;;;15.70;99.90;;;;;;5052052;28;20332;-71
2021/03/29 09:57:44;;;;;;;10.93;6.85;;;16.00;99.90;;;;;;5052102;28;20115;-71
2021/03/29 10:00:12;;;;;;;11.30;6.55;;;16.40;99.90;;;;;;5014837;28;20030;-72
2021/03/29 10:02:38;;;;;;;14.68;6.75;;;16.70;99.90;;;;;;5051221;28;20399;-71
2021/03/29 10:05:08;;;;;;;9.90;6.80;;;17.00;99.90;;;;;;5052181;28;20495;-73
2021/03/29 10:07:34;;;;;;;14.13;7.03;;;17.20;99.90;;;;;;5052394;28;20108;-70
2021/03/29 10:10:03;;;;;;;12.20;6.78;;;16.90;99.90;;;;;;5051976;28;20535;-71
2021/03/29 10:12:30;;;;;;;13.82;7.53;;;17.10;99.90;;;;;;5033594;28;20040;-71
2021/03/29 10:15:08;;;;;;;34.13;18.42;;;17.40;99.90;;;;;;5066437;28;20052;-71
2021/03/29 10:17:34;;;;;;;14.23;7.80;;;17.30;99.90;;;;;;5051969;28;20029;-70
2021/03/29 10:20:23;;;;;;;10.90;6.28;;;17.10;99.90;;;;;;5051584;28;20036;-73
2021/03/29 10:22:49;;;;;;;12.98;6.63;;;17.10;99.90;;;;;;5041393;28;20048;-73
2021/03/29 10:25:19;;;;;;;10.67;5.50;;;17.20;99.90;;;;;;5051714;28;20072;-73
2021/03/29 10:27:57;;;;;;;9.88;5.53;;;17.60;99.90;;;;;;5051726;28;20263;-73
2021/03/29 10:30:26;;;;;;;7.95;5.88;;;17.90;99.90;;;;;;5051517;28;20036;-72
2021/03/29 10:32:54;;;;;;;11.50;4.90;;;18.10;99.90;;;;;;5033304;28;20112;-72
2021/03/29 10:35:22;;;;;;;11.23;4.55;;;18.20;99.90;;;;;;5051522;28;20025;-72
2021/03/29 10:37:48;;;;;;;9.10;6.10;;;18.30;99.90;;;;;;5051639;28;20115;-72
2021/03/29 10:40:16;;;;;;;6.82;4.38;;;18.40;99.90;;;;;;5051191;28;20037;-72
2021/03/29 10:42:42;;;;;;;6.75;4.97;;;18.40;99.90;;;;;;5051281;28;20529;-72
2021/03/29 10:45:11;;;;;;;8.63;4.50;;;18.60;99.90;;;;;;5051766;28;20048;-72
2021/03/29 10:47:38;;;;;;;10.07;6.75;;;18.60;99.90;;;;;;5051557;28;20021;-72
2021/03/29 10:50:12;;;;;;;9.75;5.95;;;18.70;99.90;;;;;;5050581;28;20477;-75
2021/03/29 10:52:38;;;;;;;9.63;4.78;;;19.10;99.90;;;;;;5051443;28;20090;-72
2021/03/29 10:55:06;;;;;;;10.82;7.22;;;19.20;99.90;;;;;;5051525;28;20025;-73
2021/03/29 10:57:32;;;;;;;13.57;7.72;;;18.80;99.90;;;;;;5051391;28;20033;-72
2021/03/29 10:59:58;;;;;;;13.18;7.13;;;18.60;99.90;;;;;;5049957;28;20538;-73
2021/03/29 11:02:26;;;;;;;11.50;7.93;;;18.20;99.90;;;;;;5041484;28;20144;-76
2021/03/29 11:04:52;;;;;;;16.55;9.10;;;17.80;99.90;;;;;;5041467;28;20033;-73
2021/03/29 11:07:18;;;;;;;13.90;9.47;;;17.30;99.90;;;;;;5043835;28;20386;-73
2021/03/29 11:09:44;;;;;;;13.45;6.43;;;17.10;99.90;;;;;;5045377;28;20290;-75
2021/03/29 11:12:10;;;;;;;8.43;6.10;;;16.70;99.90;;;;;;5049331;28;20036;-74
2021/03/29 11:14:36;;;;;;;12.15;6.43;;;16.40;99.90;;;;;;5050865;28;20041;-72
2021/03/29 11:17:03;;;;;;;17.13;7.35;;;16.30;99.90;;;;;;5041366;28;20072;-72
2021/03/29 11:19:29;;;;;;;9.98;6.55;;;16.20;99.90;;;;;;5038518;28;20033;-71
2021/03/29 11:21:55;;;;;;;11.68;6.43;;;16.40;99.90;;;;;;5050517;28;20033;-72
2021/03/29 11:24:22;;;;;;;10.20;6.15;;;16.70;99.90;;;;;;5050094;28;20013;-71
2021/03/29 11:26:48;;;;;;;10.13;6.57;;;16.70;99.90;;;;;;5013941;28;20395;-74
2021/03/29 11:29:15;;;;;;;11.88;6.68;;;17.00;99.90;;;;;;5040599;28;20030;-72
2021/03/29 11:31:42;;;;;;;7.78;5.53;;;17.40;99.90;;;;;;5048049;28;20029;-72
2021/03/29 11:34:09;;;;;;;17.15;7.10;;;17.50;99.90;;;;;;5051309;28;20029;-72
2021/03/29 11:36:35;;;;;;;9.82;5.90;;;17.50;99.90;;;;;;5051576;28;20506;-72
2021/03/29 11:39:02;;;;;;;8.25;5.60;;;17.60;99.90;;;;;;5054294;28;20040;-74
2021/03/29 11:41:28;;;;;;;8.23;4.80;;;17.70;99.90;;;;;;5054669;28;20044;-74
2021/03/29 11:43:54;;;;;;;8.80;5.25;;;17.80;99.90;;;;;;5054744;28;20025;-74
2021/03/29 11:46:20;;;;;;;9.70;5.53;;;17.70;99.90;;;;;;5054898;28;20155;-73
2021/03/29 11:48:46;;;;;;;9.50;5.55;;;17.90;99.90;;;;;;5053610;28;20048;-74
2021/03/29 11:51:12;;;;;;;10.33;6.17;;;17.90;99.90;;;;;;5017219;28;20099;-74
2021/03/29 11:53:39;;;;;;;10.70;6.75;;;18.00;99.90;;;;;;5040610;28;20315;-74
2021/03/29 11:56:05;;;;;;;20.25;7.65;;;17.90;99.90;;;;;;5044853;28;20087;-75
2021/03/29 11:58:32;;;;;;;9.65;5.07;;;18.10;99.90;;;;;;5038996;28;20033;-74
2021/03/29 12:01:05;;;;;;;10.70;5.93;;;18.10;99.90;;;;;;5054512;28;20116;-74
2021/03/29 12:06:05;;;;;;;10.55;5.95;;;18.10;99.90;;;;;;5042486;28;20076;-73
2021/03/29 12:08:39;;;;;;;13.15;5.72;;;18.00;99.90;;;;;;5035895;28;20468;-74
2021/03/29 12:12:07;;;;;;;10.32;5.40;;;18.00;99.90;;;;;;5041662;28;20487;-74
2021/03/29 12:14:02;;;;;;;9.18;5.80;;;17.60;99.90;;;;;;5023225;28;20052;-74
2021/03/29 12:16:33;;;;;;;10.07;6.75;;;17.50;99.90;;;;;;5052134;28;20061;-74
2021/03/29 12:19:04;;;;;;;8.93;5.68;;;17.80;99.90;;;;;;5054567;28;20395;-73
2021/03/29 12:21:34;;;;;;;13.60;5.95;;;17.90;99.90;;;;;;5046910;28;20048;-73
2021/03/29 12:24:06;;;;;;;8.35;5.32;;;17.90;99.90;;;;;;5045701;28;20033;-74
2021/03/29 12:26:52;;;;;;;11.63;6.55;;;18.00;99.90;;;;;;5037518;28;20040;-74
2021/03/29 12:29:21;;;;;;;12.93;5.80;;;18.10;99.90;;;;;;5029758;28;20036;-74
2021/03/29 12:31:49;;;;;;;9.38;6.03;;;18.30;99.90;;;;;;5054284;28;20021;-74
2021/03/29 12:34:16;;;;;;;10.93;6.15;;;18.40;99.90;;;;;;5035919;28;20037;-74
2021/03/29 12:36:47;;;;;;;14.70;5.63;;;18.40;99.90;;;;;;5054062;28;20021;-74
2021/03/29 12:39:23;;;;;;;11.18;6.38;;;18.40;99.90;;;;;;5054009;28;20033;-74
2021/03/29 12:41:54;;;;;;;9.57;5.85;;;18.30;99.90;;;;;;5054066;28;20398;-74
2021/03/29 12:44:21;;;;;;;9.45;6.55;;;18.20;99.90;;;;;;5053536;28;20020;-74
2021/03/29 12:46:50;;;;;;;13.60;7.28;;;18.30;99.90;;;;;;5053635;28;20029;-74
2021/03/29 12:49:16;;;;;;;10.63;6.00;;;18.30;99.90;;;;;;5051276;28;20013;-74
2021/03/29 12:51:44;;;;;;;12.38;6.80;;;18.40;99.90;;;;;;5047254;28;20502;-74
2021/03/29 12:54:21;;;;;;;17.25;5.75;;;18.40;99.90;;;;;;5037690;28;20387;-74